Time;durP1;ratioP1;P1;durP2;ratioP2;P2;SDS_P1;SDS_P2;PMS_P1;PMS_P2;Temp;Humidity;BMP_temperature;BMP_pressure;BME280_temperature;BME280_humidity;BME280_pressure;Samples;Min_cycle;Max_cycle;Signal;HPM_P1;HPM_P2
2021/03/17 00:04:59;;;;;;;0.20;0.10;;;8.70;66.20;;;;;;20829837;28;20073;-73
2021/03/17 00:15:22;;;;;;;0.20;0.20;;;8.70;66.20;;;;;;20828876;28;20041;-72
2021/03/17 00:25:41;;;;;;;0.45;0.13;;;8.70;66.20;;;;;;20839928;28;20053;-72
2021/03/17 00:36:00;;;;;;;0.10;0.05;;;8.70;66.20;;;;;;20799653;28;20073;-73
2021/03/17 00:46:19;;;;;;;0.20;0.20;;;8.70;66.30;;;;;;20800241;28;20041;-76
2021/03/17 00:56:22;;;;;;;0.00;0.00;;;8.70;66.30;;;;;;20794404;28;20040;-72
2021/03/17 01:06:23;;;;;;;0.43;0.32;;;8.70;66.40;;;;;;20808656;28;20483;-75
2021/03/17 01:16:24;;;;;;;0.60;0.40;;;8.80;66.50;;;;;;20792224;28;20059;-73
2021/03/17 01:26:25;;;;;;;0.08;0.08;;;8.90;66.50;;;;;;20807756;28;20421;-72
2021/03/17 01:36:25;;;;;;;0.20;0.10;;;9.00;66.50;;;;;;20823906;28;20065;-73
2021/03/17 01:46:26;;;;;;;0.20;0.17;;;9.00;66.10;;;;;;20808334;28;20120;-72
2021/03/17 01:56:26;;;;;;;0.10;0.10;;;9.00;65.80;;;;;;20806674;28;20033;-72
2021/03/17 02:06:27;;;;;;;0.25;0.10;;;9.10;65.50;;;;;;20790419;28;20068;-72
2021/03/17 02:16:37;;;;;;;0.20;0.15;;;9.00;65.30;;;;;;20805748;28;20489;-75
2021/03/17 02:26:49;;;;;;;0.10;0.10;;;9.00;65.10;;;;;;20818400;28;20058;-73
2021/03/17 02:36:53;;;;;;;1.75;0.28;;;9.00;65.10;;;;;;20820889;28;20571;-72
2021/03/17 02:46:54;;;;;;;0.60;0.13;;;9.00;65.10;;;;;;20819645;28;20029;-72
2021/03/17 02:57:20;;;;;;;0.20;0.10;;;8.90;65.10;;;;;;20818539;28;20088;-74
2021/03/17 03:07:21;;;;;;;0.10;0.10;;;8.90;65.20;;;;;;20821581;28;20489;-74
2021/03/17 03:17:23;;;;;;;0.10;0.10;;;8.80;65.10;;;;;;20817235;28;20040;-72
2021/03/17 03:27:24;;;;;;;9.10;0.30;;;8.90;65.30;;;;;;20800126;28;20045;-73
2021/03/17 03:37:25;;;;;;;0.47;0.20;;;8.80;65.30;;;;;;20815270;28;20485;-72
2021/03/17 03:47:27;;;;;;;0.00;0.00;;;8.80;65.40;;;;;;20814683;28;20056;-72
2021/03/17 03:57:39;;;;;;;0.10;0.10;;;8.80;65.40;;;;;;20815104;28;20489;-72
2021/03/17 04:07:41;;;;;;;0.40;0.20;;;8.70;65.40;;;;;;20812969;28;20779;-72
2021/03/17 04:17:43;;;;;;;0.08;0.08;;;8.70;65.40;;;;;;20796611;28;20038;-72
2021/03/17 04:27:45;;;;;;;0.52;0.20;;;8.70;65.50;;;;;;20810427;28;20092;-74
2021/03/17 04:37:47;;;;;;;0.20;0.20;;;8.70;65.50;;;;;;20791978;28;20180;-73
2021/03/17 04:47:47;;;;;;;0.30;0.10;;;8.70;65.50;;;;;;20826042;28;20100;-72
2021/03/17 04:57:48;;;;;;;0.00;0.00;;;8.70;65.40;;;;;;20793312;28;20664;-77
2021/03/17 05:07:49;;;;;;;0.03;0.03;;;8.70;65.40;;;;;;20793461;28;20034;-75
2021/03/17 05:17:50;;;;;;;0.17;0.15;;;8.70;65.40;;;;;;20776462;28;20308;-74
2021/03/17 05:27:54;;;;;;;0.20;0.10;;;8.70;65.40;;;;;;20791247;28;20148;-80
2021/03/17 05:37:55;;;;;;;0.20;0.20;;;8.70;65.40;;;;;;20791462;28;20045;-78
2021/03/17 05:47:55;;;;;;;0.43;0.20;;;8.70;65.40;;;;;;20783573;28;20055;-79
2021/03/17 05:57:58;;;;;;;1.85;0.17;;;8.70;65.40;;;;;;20835905;28;20390;-80
2021/03/17 06:08:12;;;;;;;0.10;0.10;;;8.70;65.40;;;;;;20842661;28;20033;-80
2021/03/17 06:18:17;;;;;;;0.08;0.08;;;8.70;65.40;;;;;;20822419;28;20045;-81
2021/03/17 06:28:17;;;;;;;0.30;0.20;;;8.70;65.40;;;;;;20872087;28;20059;-78
2021/03/17 06:38:22;;;;;;;0.15;0.08;;;8.70;65.40;;;;;;20830994;28;20037;-77
2021/03/17 06:48:29;;;;;;;6.32;0.75;;;8.60;65.40;;;;;;20821782;28;20787;-73
2021/03/17 06:59:06;;;;;;;0.25;0.25;;;8.70;65.40;;;;;;20755892;28;20045;-74
2021/03/17 07:09:26;;;;;;;0.05;0.05;;;8.60;65.40;;;;;;20736668;28;20481;-74
2021/03/17 07:19:33;;;;;;;0.50;0.20;;;8.70;65.40;;;;;;20820210;28;20095;-74
2021/03/17 07:29:33;;;;;;;0.77;0.40;;;8.60;65.40;;;;;;20837961;28;20036;-75
2021/03/17 07:39:39;;;;;;;0.43;0.22;;;8.60;65.40;;;;;;20835726;28;20029;-76
2021/03/17 07:49:44;;;;;;;0.00;0.00;;;8.60;65.40;;;;;;20835505;28;20431;-75
2021/03/17 07:59:44;;;;;;;0.28;0.22;;;8.60;65.40;;;;;;20767752;28;20044;-76
2021/03/17 08:09:45;;;;;;;0.25;0.25;;;8.60;65.40;;;;;;20809078;28;20029;-75
2021/03/17 08:19:46;;;;;;;1.75;0.08;;;8.60;65.40;;;;;;21196865;22;20041;-75
2021/03/17 08:29:51;;;;;;;0.08;0.08;;;8.60;65.40;;;;;;20766067;28;20067;-77
2021/03/17 08:39:52;;;;;;;0.10;0.10;;;8.60;65.40;;;;;;20678448;28;20589;-73
2021/03/17 08:49:52;;;;;;;1.17;0.20;;;8.60;65.40;;;;;;20745763;28;20033;-75
2021/03/17 08:59:55;;;;;;;3.25;0.20;;;8.60;65.30;;;;;;20661183;28;20041;-73
2021/03/17 09:10:15;;;;;;;0.25;0.10;;;8.60;65.30;;;;;;20657914;28;20030;-74
2021/03/17 09:20:31;;;;;;;0.25;0.20;;;8.60;65.20;;;;;;20741024;28;20117;-74
2021/03/17 09:30:38;;;;;;;0.17;0.10;;;8.60;65.20;;;;;;20726737;28;20037;-75
2021/03/17 09:40:44;;;;;;;0.73;0.60;;;8.60;65.10;;;;;;20743210;28;20038;-73
2021/03/17 09:50:45;;;;;;;0.17;0.17;;;8.60;65.10;;;;;;20711279;28;20359;-73
2021/03/17 10:00:48;;;;;;;0.47;0.13;;;8.60;65.10;;;;;;20723661;28;20038;-74
2021/03/17 10:10:48;;;;;;;0.90;0.10;;;8.60;65.70;;;;;;20691315;28;20393;-74
2021/03/17 10:20:50;;;;;;;9.48;0.63;;;8.70;65.10;;;;;;20657722;28;20100;-74
2021/03/17 10:30:51;;;;;;;0.20;0.20;;;8.60;65.00;;;;;;20674973;28;20397;-74
2021/03/17 10:40:51;;;;;;;0.25;0.20;;;8.70;65.00;;;;;;20709632;28;20048;-72
2021/03/17 10:50:55;;;;;;;0.15;0.15;;;8.70;64.90;;;;;;20732178;28;20030;-73
2021/03/17 11:00:57;;;;;;;0.63;0.20;;;8.70;64.80;;;;;;20713818;28;20490;-73
2021/03/17 11:11:09;;;;;;;1.10;0.50;;;8.70;64.80;;;;;;20753025;28;20052;-73
2021/03/17 11:21:35;;;;;;;0.10;0.10;;;8.70;64.70;;;;;;20716917;28;20065;-73
2021/03/17 11:31:36;;;;;;;0.30;0.25;;;8.70;64.60;;;;;;20726233;28;20045;-75
2021/03/17 11:41:37;;;;;;;0.10;0.10;;;8.70;64.50;;;;;;20697886;28;20115;-73
2021/03/17 11:51:37;;;;;;;0.00;0.00;;;8.70;64.40;;;;;;20697489;28;20121;-70
2021/03/17 12:01:38;;;;;;;0.22;0.20;;;8.70;64.40;;;;;;20716003;28;20524;-78
2021/03/17 12:11:42;;;;;;;0.53;0.20;;;8.70;64.40;;;;;;20715721;28;20034;-73
2021/03/17 12:21:43;;;;;;;0.40;0.20;;;8.70;64.40;;;;;;20707718;28;20346;-76
2021/03/17 12:31:43;;;;;;;0.30;0.20;;;8.70;64.10;;;;;;20720081;28;20052;-79
2021/03/17 12:41:44;;;;;;;0.10;0.10;;;8.70;64.10;;;;;;20738277;28;20040;-72
2021/03/17 12:51:44;;;;;;;2.83;1.07;;;8.80;64.00;;;;;;20712539;28;20557;-77
2021/03/17 13:01:45;;;;;;;2.90;0.33;;;8.70;63.90;;;;;;20691783;28;20397;-75
2021/03/17 13:11:46;;;;;;;0.20;0.20;;;8.70;63.90;;;;;;20722978;28;20343;-75
2021/03/17 13:21:50;;;;;;;0.55;0.38;;;8.70;63.80;;;;;;20649763;28;20034;-72
2021/03/17 13:31:50;;;;;;;0.10;0.10;;;8.70;63.90;;;;;;20683622;28;20052;-76
2021/03/17 13:41:51;;;;;;;0.15;0.13;;;8.70;63.80;;;;;;20710150;28;20142;-74
2021/03/17 13:51:52;;;;;;;0.55;0.08;;;8.80;63.90;;;;;;20705133;28;20033;-72
2021/03/17 14:01:53;;;;;;;0.00;0.00;;;8.80;63.90;;;;;;20776935;28;20060;-73
2021/03/17 14:11:53;;;;;;;0.10;0.10;;;8.80;64.20;;;;;;20704678;28;20121;-75
2021/03/17 14:21:54;;;;;;;0.10;0.10;;;8.80;64.30;;;;;;20682157;28;20042;-73
2021/03/17 14:31:54;;;;;;;0.00;0.00;;;9.00;65.20;;;;;;20684327;28;20290;-74
2021/03/17 14:41:55;;;;;;;0.47;0.38;;;9.20;64.80;;;;;;20730120;28;20084;-74
2021/03/17 14:51:55;;;;;;;0.22;0.22;;;9.30;64.60;;;;;;20702584;28;20022;-76
2021/03/17 15:01:57;;;;;;;0.00;0.00;;;9.30;64.70;;;;;;20736214;28;20045;-75
2021/03/17 15:11:58;;;;;;;0.10;0.10;;;9.40;64.50;;;;;;20703920;28;20034;-76
2021/03/17 15:22:00;;;;;;;0.10;0.10;;;9.40;64.30;;;;;;20636726;28;20034;-76
2021/03/17 15:32:00;;;;;;;0.30;0.20;;;9.30;64.30;;;;;;20653092;28;20041;-78
2021/03/17 15:42:01;;;;;;;0.68;0.47;;;9.30;64.40;;;;;;20636805;28;20030;-76
2021/03/17 15:52:02;;;;;;;0.20;0.20;;;9.30;64.50;;;;;;20636361;28;20105;-78
2021/03/17 16:02:02;;;;;;;0.82;0.28;;;9.30;64.60;;;;;;20619547;28;20049;-75
2021/03/17 16:12:03;;;;;;;1.13;0.20;;;9.40;64.60;;;;;;20650969;28;20030;-77
2021/03/17 16:22:04;;;;;;;0.20;0.20;;;9.40;64.50;;;;;;20633741;28;20074;-78
2021/03/17 16:32:05;;;;;;;0.43;0.20;;;9.40;64.60;;;;;;20617066;28;20026;-79
2021/03/17 16:42:06;;;;;;;2.72;0.35;;;9.40;64.70;;;;;;20630526;28;20324;-75
2021/03/17 16:52:06;;;;;;;0.95;0.40;;;9.50;64.80;;;;;;20630376;28;20065;-77
2021/03/17 17:02:07;;;;;;;0.82;0.70;;;9.40;64.70;;;;;;20629882;28;20042;-75
2021/03/17 17:12:08;;;;;;;6.20;1.20;;;9.40;64.80;;;;;;20653698;28;20088;-77
2021/03/17 17:22:09;;;;;;;2.35;1.38;;;9.40;64.90;;;;;;20731657;28;20042;-75
2021/03/17 17:32:09;;;;;;;1.70;1.52;;;9.30;64.90;;;;;;20725399;28;20028;-76
2021/03/17 17:42:10;;;;;;;1.00;0.80;;;9.30;65.00;;;;;;20708791;28;20033;-76
2021/03/17 17:52:10;;;;;;;4.55;1.48;;;9.30;65.00;;;;;;20731096;28;20164;-77
2021/03/17 18:02:12;;;;;;;6.10;0.85;;;9.30;65.10;;;;;;20724751;28;20493;-76
2021/03/17 18:12:13;;;;;;;2.90;0.50;;;9.20;65.10;;;;;;20744478;28;20034;-77
2021/03/17 18:22:13;;;;;;;2.85;0.98;;;9.20;65.20;;;;;;20723096;28;20041;-77
2021/03/17 18:32:14;;;;;;;1.67;0.82;;;9.20;65.30;;;;;;20717758;28;20056;-77
2021/03/17 18:42:16;;;;;;;1.10;0.55;;;9.10;65.30;;;;;;20660781;28;20057;-75
2021/03/17 18:52:17;;;;;;;4.82;1.05;;;9.10;65.50;;;;;;20703951;28;20030;-74
2021/03/17 19:02:18;;;;;;;3.15;0.95;;;9.00;65.60;;;;;;20703768;28;20069;-73
2021/03/17 19:12:18;;;;;;;1.30;0.52;;;9.00;65.60;;;;;;20716392;28;20077;-74
2021/03/17 19:22:19;;;;;;;1.27;0.75;;;8.90;65.70;;;;;;20715784;28;20041;-73
2021/03/17 19:32:20;;;;;;;2.38;1.45;;;9.00;65.90;;;;;;20718673;28;20030;-74
2021/03/17 19:42:21;;;;;;;0.88;0.38;;;9.00;65.90;;;;;;20756809;28;20040;-74
2021/03/17 19:52:22;;;;;;;1.05;0.63;;;9.10;65.70;;;;;;20809972;28;20037;-74
2021/03/17 20:02:41;;;;;;;1.63;0.90;;;9.00;65.50;;;;;;20807927;28;20041;-72
2021/03/17 20:12:50;;;;;;;2.17;1.50;;;9.00;65.40;;;;;;20780514;28;20033;-74
2021/03/17 20:23:20;;;;;;;1.92;1.48;;;9.00;65.30;;;;;;20746685;28;20049;-73
2021/03/17 20:33:24;;;;;;;1.88;0.50;;;9.00;65.30;;;;;;20777272;28;20030;-73
2021/03/17 20:43:24;;;;;;;0.77;0.57;;;8.90;65.20;;;;;;20792695;28;20080;-72
2021/03/17 20:53:26;;;;;;;3.03;0.93;;;8.90;65.10;;;;;;20792186;28;20021;-73
2021/03/17 21:03:29;;;;;;;2.42;1.65;;;8.90;65.10;;;;;;20775027;28;20038;-73
2021/03/17 21:13:31;;;;;;;1.88;0.82;;;8.90;65.10;;;;;;20790998;28;20120;-73
2021/03/17 21:23:40;;;;;;;1.67;1.02;;;8.80;65.00;;;;;;20787714;28;20071;-74
2021/03/17 21:33:41;;;;;;;3.20;0.80;;;8.80;65.00;;;;;;20806042;28;20171;-73
2021/03/17 21:44:05;;;;;;;0.98;0.75;;;8.80;65.00;;;;;;20753056;28;20052;-77
2021/03/17 21:54:06;;;;;;;0.98;0.63;;;8.80;64.90;;;;;;20789128;28;20025;-74
2021/03/17 22:04:12;;;;;;;0.68;0.65;;;8.80;64.90;;;;;;20785460;28;20059;-75
2021/03/17 22:14:12;;;;;;;1.17;0.60;;;8.80;64.90;;;;;;20771676;28;20065;-74
2021/03/17 22:24:13;;;;;;;1.15;0.88;;;8.80;64.90;;;;;;20787664;28;20367;-73
2021/03/17 22:34:13;;;;;;;2.85;1.40;;;8.80;64.90;;;;;;20804363;28;20025;-73
2021/03/17 22:44:14;;;;;;;2.33;0.95;;;8.80;64.70;;;;;;20802330;28;20304;-73
2021/03/17 22:54:15;;;;;;;1.73;1.55;;;8.80;64.50;;;;;;20799538;28;20030;-73
2021/03/17 23:04:15;;;;;;;1.77;1.50;;;8.80;64.40;;;;;;20818278;28;20536;-74
2021/03/17 23:14:17;;;;;;;0.50;0.50;;;8.80;64.30;;;;;;20801814;28;20033;-75
2021/03/17 23:24:29;;;;;;;2.90;1.25;;;8.80;64.20;;;;;;20801014;28;20306;-73
2021/03/17 23:34:31;;;;;;;1.60;0.65;;;8.80;64.10;;;;;;20833005;28;20087;-73
2021/03/17 23:44:31;;;;;;;0.98;0.70;;;8.80;64.20;;;;;;20799860;28;20040;-74
2021/03/17 23:54:32;;;;;;;1.48;0.43;;;8.80;64.00;;;;;;20798134;28;20389;-74
